Time;durP1;ratioP1;P1;durP2;ratioP2;P2;SDS_P1;SDS_P2;PMS_P1;PMS_P2;Temp;Humidity;BMP_temperature;BMP_pressure;BME280_temperature;BME280_humidity;BME280_pressure;Samples;Min_cycle;Max_cycle;Signal;HPM_P1;HPM_P2
2023/12/16 00:02:22;;;;;;;14.90;10.13;;;;;;;;;;5028022;28;20185;-85
2023/12/16 00:05:26;;;;;;;14.03;10.33;;;;;;;;;;5016319;28;20177;-84
2023/12/16 00:08:30;;;;;;;13.27;8.83;;;;;;;;;;5005172;28;20561;-84
2023/12/16 00:11:34;;;;;;;15.73;9.00;;;;;;;;;;5039543;28;20185;-84
2023/12/16 00:14:38;;;;;;;12.57;9.50;;;;;;;;;;5027525;28;20181;-84
2023/12/16 00:17:42;;;;;;;13.87;8.60;;;;;;;;;;5038190;28;20220;-84
2023/12/16 00:20:47;;;;;;;14.40;9.63;;;;;;;;;;5016042;28;20173;-84
2023/12/16 00:23:51;;;;;;;12.17;9.07;;;;;;;;;;5016507;28;20177;-84
2023/12/16 00:26:55;;;;;;;14.13;9.63;;;;;;;;;;5017900;28;20181;-84
2023/12/16 00:29:59;;;;;;;16.10;10.63;;;;;;;;;;5039392;28;20181;-84
2023/12/16 00:33:03;;;;;;;13.67;9.10;;;;;;;;;;5038562;28;20185;-84
2023/12/16 00:36:09;;;;;;;13.67;9.57;;;;;;;;;;5027735;28;20558;-84
2023/12/16 00:39:13;;;;;;;13.80;9.93;;;;;;;;;;5026379;28;20229;-84
2023/12/16 00:42:17;;;;;;;11.93;9.03;;;;;;;;;;5038062;28;20530;-84
2023/12/16 00:45:21;;;;;;;13.80;8.97;;;;;;;;;;5038779;28;20630;-84
2023/12/16 00:48:25;;;;;;;10.77;8.33;;;;;;;;;;5025757;28;20690;-84
2023/12/16 00:51:29;;;;;;;11.20;7.67;;;;;;;;;;5026253;28;20177;-84
2023/12/16 00:54:33;;;;;;;13.27;9.37;;;;;;;;;;5025999;28;20180;-84
2023/12/16 00:57:38;;;;;;;12.40;9.20;;;;;;;;;;5038093;28;20221;-84
2023/12/16 01:00:42;;;;;;;13.67;8.90;;;;;;;;;;5037283;28;20173;-84
2023/12/16 01:03:46;;;;;;;11.60;8.37;;;;;;;;;;5025546;28;20523;-84
2023/12/16 01:06:50;;;;;;;13.43;9.73;;;;;;;;;;5038122;28;20180;-84
2023/12/16 01:09:55;;;;;;;12.80;8.50;;;;;;;;;;5014448;28;20177;-84
2023/12/16 01:12:59;;;;;;;13.60;9.07;;;;;;;;;;5025584;28;20212;-84
2023/12/16 01:16:04;;;;;;;14.23;9.27;;;;;;;;;;5013871;28;20185;-83
2023/12/16 01:19:07;;;;;;;11.90;8.30;;;;;;;;;;5025492;28;20220;-84
2023/12/16 01:22:13;;;;;;;12.20;8.67;;;;;;;;;;5014046;28;20181;-84
2023/12/16 01:25:17;;;;;;;11.77;8.67;;;;;;;;;;5014231;28;20181;-84
2023/12/16 01:28:21;;;;;;;11.37;7.93;;;;;;;;;;5024958;28;20216;-84
2023/12/16 01:31:25;;;;;;;11.63;8.67;;;;;;;;;;5013967;28;20181;-84
2023/12/16 01:34:29;;;;;;;12.00;8.53;;;;;;;;;;5036086;28;20188;-84
2023/12/16 01:37:33;;;;;;;13.73;9.83;;;;;;;;;;5025182;28;20224;-84
2023/12/16 01:40:37;;;;;;;14.80;10.17;;;;;;;;;;5024491;28;20204;-84
2023/12/16 01:43:41;;;;;;;14.47;10.23;;;;;;;;;;5035949;28;20184;-84
2023/12/16 01:46:46;;;;;;;14.40;10.67;;;;;;;;;;5036416;28;20180;-84
2023/12/16 01:49:50;;;;;;;14.70;10.10;;;;;;;;;;5024782;28;20180;-83
2023/12/16 01:52:55;;;;;;;13.57;9.60;;;;;;;;;;5036193;28;20519;-84
2023/12/16 01:55:59;;;;;;;14.30;10.30;;;;;;;;;;5013199;28;20192;-84
2023/12/16 01:59:05;;;;;;;12.50;9.20;;;;;;;;;;5024253;28;20224;-84
2023/12/16 02:02:10;;;;;;;13.63;9.63;;;;;;;;;;5024549;28;20193;-84
2023/12/16 02:05:14;;;;;;;12.97;8.87;;;;;;;;;;5036034;28;20180;-83
2023/12/16 02:08:18;;;;;;;11.80;8.77;;;;;;;;;;5011694;28;20224;-84
2023/12/16 02:11:23;;;;;;;14.80;9.47;;;;;;;;;;5027488;28;20176;-84
2023/12/16 02:14:27;;;;;;;14.37;9.47;;;;;;;;;;5037141;28;20176;-83
2023/12/16 02:17:31;;;;;;;16.23;10.80;;;;;;;;;;5025733;28;20216;-84
2023/12/16 02:20:35;;;;;;;14.17;9.50;;;;;;;;;;5025372;28;20209;-83
2023/12/16 02:23:40;;;;;;;14.23;10.40;;;;;;;;;;5003765;28;20630;-83
2023/12/16 02:26:44;;;;;;;13.50;9.73;;;;;;;;;;5042666;28;20189;-85
2023/12/16 02:29:48;;;;;;;15.50;10.20;;;;;;;;;;5031187;28;20185;-85
2023/12/16 02:32:55;;;;;;;16.20;10.23;;;;;;;;;;5028225;28;20185;-84
2023/12/16 02:36:00;;;;;;;14.60;10.63;;;;;;;;;;5028740;28;20185;-84
2023/12/16 02:39:05;;;;;;;14.17;10.20;;;;;;;;;;5040374;28;20224;-84
2023/12/16 02:42:09;;;;;;;15.60;10.07;;;;;;;;;;5028987;28;20189;-84
2023/12/16 02:45:13;;;;;;;14.80;10.07;;;;;;;;;;5030452;28;20180;-85
2023/12/16 02:48:17;;;;;;;13.37;9.90;;;;;;;;;;5032521;28;20220;-85
2023/12/16 02:51:22;;;;;;;15.23;10.17;;;;;;;;;;5043888;28;20177;-85
2023/12/16 02:54:27;;;;;;;15.63;10.10;;;;;;;;;;5034377;28;20185;-85
2023/12/16 02:57:31;;;;;;;19.63;11.30;;;;;;;;;;5046958;28;20221;-85
2023/12/16 03:00:36;;;;;;;15.53;10.70;;;;;;;;;;5034185;28;20208;-85
2023/12/16 03:03:40;;;;;;;15.53;10.23;;;;;;;;;;5033422;28;20192;-84
2023/12/16 03:06:45;;;;;;;13.30;10.07;;;;;;;;;;5033198;28;20177;-84
2023/12/16 03:09:49;;;;;;;16.97;10.57;;;;;;;;;;5035028;28;20184;-84
2023/12/16 03:12:54;;;;;;;14.20;9.87;;;;;;;;;;5034412;28;20222;-85
2023/12/16 03:15:58;;;;;;;13.97;9.10;;;;;;;;;;5035057;28;20192;-85
2023/12/16 03:19:02;;;;;;;15.03;10.03;;;;;;;;;;5027597;28;20212;-85
2023/12/16 03:22:06;;;;;;;14.17;9.47;;;;;;;;;;5038326;28;20531;-84
2023/12/16 03:25:11;;;;;;;15.30;10.30;;;;;;;;;;5050336;28;20180;-84
2023/12/16 03:28:15;;;;;;;16.97;9.53;;;;;;;;;;5046697;28;20220;-84
2023/12/16 03:31:19;;;;;;;14.93;10.43;;;;;;;;;;5046973;28;20211;-84
2023/12/16 03:34:24;;;;;;;14.53;9.67;;;;;;;;;;5034978;28;20181;-84
2023/12/16 03:37:28;;;;;;;13.93;9.50;;;;;;;;;;5023324;28;20220;-84
2023/12/16 03:40:33;;;;;;;12.57;9.43;;;;;;;;;;5011236;28;20208;-84
2023/12/16 03:43:37;;;;;;;13.43;9.43;;;;;;;;;;5034762;28;20184;-84
2023/12/16 03:46:41;;;;;;;14.27;10.03;;;;;;;;;;5037200;28;20181;-85
2023/12/16 03:49:45;;;;;;;13.67;9.40;;;;;;;;;;5048238;28;20176;-85
2023/12/16 03:52:50;;;;;;;14.00;9.50;;;;;;;;;;5036634;28;20189;-84
2023/12/16 03:55:54;;;;;;;12.80;8.87;;;;;;;;;;5048753;28;20190;-85
2023/12/16 03:58:58;;;;;;;13.80;9.63;;;;;;;;;;5046607;28;20216;-84
2023/12/16 04:02:03;;;;;;;14.37;9.97;;;;;;;;;;5033645;28;20185;-84
2023/12/16 04:05:08;;;;;;;14.13;9.70;;;;;;;;;;5044722;28;20189;-84
2023/12/16 04:08:12;;;;;;;14.57;9.47;;;;;;;;;;5033200;28;20212;-84
2023/12/16 04:11:17;;;;;;;13.13;9.13;;;;;;;;;;5033855;28;20181;-84
2023/12/16 04:14:21;;;;;;;15.47;9.87;;;;;;;;;;5046441;28;20177;-85
2023/12/16 04:17:25;;;;;;;14.93;10.03;;;;;;;;;;5035142;28;20181;-84
2023/12/16 04:20:30;;;;;;;18.33;10.93;;;;;;;;;;5034882;28;20216;-84
2023/12/16 04:23:34;;;;;;;15.00;10.50;;;;;;;;;;5045496;28;20188;-84
2023/12/16 04:26:38;;;;;;;16.63;10.60;;;;;;;;;;5044345;28;20622;-84
2023/12/16 04:29:43;;;;;;;17.50;11.63;;;;;;;;;;5033689;28;20173;-84
2023/12/16 04:32:47;;;;;;;15.90;10.13;;;;;;;;;;5034528;28;20181;-84
2023/12/16 04:35:51;;;;;;;13.77;10.23;;;;;;;;;;5034961;28;20177;-84
2023/12/16 04:38:56;;;;;;;18.87;11.27;;;;;;;;;;5034568;28;20217;-84
2023/12/16 04:42:01;;;;;;;14.50;9.83;;;;;;;;;;5033330;28;20177;-84
2023/12/16 04:45:06;;;;;;;15.00;9.53;;;;;;;;;;5033815;28;20177;-85
2023/12/16 04:48:10;;;;;;;14.37;10.00;;;;;;;;;;5044768;28;20216;-84
2023/12/16 04:51:14;;;;;;;13.37;9.60;;;;;;;;;;5043021;28;20181;-84
2023/12/16 04:54:18;;;;;;;17.80;11.00;;;;;;;;;;5031533;28;20185;-84
2023/12/16 04:57:22;;;;;;;14.87;9.77;;;;;;;;;;5041783;28;20176;-84
2023/12/16 05:00:27;;;;;;;15.17;10.13;;;;;;;;;;5038334;28;20209;-84
2023/12/16 05:03:32;;;;;;;15.63;10.43;;;;;;;;;;5032719;28;20184;-84
2023/12/16 05:06:36;;;;;;;15.47;10.43;;;;;;;;;;5032639;28;20284;-84
2023/12/16 05:09:40;;;;;;;15.47;10.70;;;;;;;;;;5032864;28;20220;-84
2023/12/16 05:12:44;;;;;;;17.27;10.17;;;;;;;;;;5032322;28;20204;-84
2023/12/16 05:15:51;;;;;;;16.97;11.43;;;;;;;;;;5033226;28;20185;-85
2023/12/16 05:18:55;;;;;;;18.93;11.13;;;;;;;;;;5034400;28;20666;-84
2023/12/16 05:21:59;;;;;;;20.67;11.97;;;;;;;;;;5035038;28;20177;-83
2023/12/16 05:25:04;;;;;;;19.40;12.47;;;;;;;;;;5037520;28;20181;-83
2023/12/16 05:28:08;;;;;;;21.60;12.40;;;;;;;;;;5025982;28;20216;-83
2023/12/16 05:31:12;;;;;;;19.77;13.07;;;;;;;;;;5026614;28;20169;-83
2023/12/16 05:34:17;;;;;;;20.60;12.50;;;;;;;;;;5038076;28;20184;-83
2023/12/16 05:37:21;;;;;;;17.70;11.97;;;;;;;;;;5026429;28;20185;-83
2023/12/16 05:40:25;;;;;;;19.77;11.63;;;;;;;;;;5036410;28;20209;-83
2023/12/16 05:43:29;;;;;;;20.60;12.40;;;;;;;;;;5015140;28;20523;-83
2023/12/16 05:46:33;;;;;;;18.83;12.10;;;;;;;;;;5015130;28;20181;-83
2023/12/16 05:49:37;;;;;;;22.33;13.53;;;;;;;;;;5026496;28;20181;-83
2023/12/16 05:52:43;;;;;;;19.63;12.43;;;;;;;;;;5038414;28;20173;-83
2023/12/16 05:55:47;;;;;;;20.83;13.40;;;;;;;;;;5037131;28;20181;-82
2023/12/16 05:58:51;;;;;;;19.70;12.47;;;;;;;;;;5025890;28;20216;-83
2023/12/16 06:01:56;;;;;;;23.50;12.53;;;;;;;;;;5025390;28;20213;-84
2023/12/16 06:05:00;;;;;;;22.50;13.87;;;;;;;;;;5013862;28;20661;-81
2023/12/16 06:08:04;;;;;;;23.13;13.47;;;;;;;;;;5024808;28;20208;-81
2023/12/16 06:11:12;;;;;;;18.73;13.00;;;;;;;;;;5037291;28;20177;-82
2023/12/16 06:14:17;;;;;;;24.93;13.67;;;;;;;;;;5024952;28;20189;-83
2023/12/16 06:17:21;;;;;;;21.60;14.10;;;;;;;;;;5037209;28;20641;-83
2023/12/16 06:20:25;;;;;;;22.87;13.73;;;;;;;;;;5037485;28;20205;-83
2023/12/16 06:23:30;;;;;;;21.83;13.00;;;;;;;;;;5014317;28;20188;-84
2023/12/16 06:26:34;;;;;;;19.33;13.43;;;;;;;;;;5037569;28;20630;-83
2023/12/16 06:29:39;;;;;;;21.27;12.63;;;;;;;;;;5013544;28;20177;-83
2023/12/16 06:32:43;;;;;;;19.13;12.70;;;;;;;;;;5036748;28;20181;-83
2023/12/16 06:35:48;;;;;;;20.33;13.40;;;;;;;;;;5036856;28;20181;-83
2023/12/16 06:38:52;;;;;;;18.90;12.30;;;;;;;;;;5037371;28;20566;-83
2023/12/16 06:41:57;;;;;;;21.37;12.70;;;;;;;;;;5036242;28;20212;-83
2023/12/16 06:45:01;;;;;;;19.17;12.67;;;;;;;;;;5025276;28;20177;-83
2023/12/16 06:48:05;;;;;;;19.50;12.70;;;;;;;;;;5036154;28;20566;-83
2023/12/16 06:51:09;;;;;;;18.00;11.67;;;;;;;;;;5023840;28;20169;-83
2023/12/16 06:54:13;;;;;;;16.43;11.73;;;;;;;;;;5036109;28;20181;-84
2023/12/16 06:57:17;;;;;;;17.73;12.03;;;;;;;;;;5036523;28;20185;-83
2023/12/16 07:00:22;;;;;;;18.90;12.03;;;;;;;;;;5024343;28;20213;-84
2023/12/16 07:03:28;;;;;;;18.97;12.50;;;;;;;;;;5035793;28;20180;-83
2023/12/16 07:06:32;;;;;;;20.73;13.40;;;;;;;;;;5108359;22;20725;-82
2023/12/16 07:09:38;;;;;;;20.90;14.70;;;;;;;;;;5088409;28;20175;-83
2023/12/16 07:12:42;;;;;;;22.63;14.00;;;;;;;;;;5101011;28;20627;-82
2023/12/16 07:15:46;;;;;;;19.20;12.37;;;;;;;;;;5100700;28;20206;-82
2023/12/16 07:18:51;;;;;;;23.13;12.77;;;;;;;;;;5089330;28;20183;-82
2023/12/16 07:21:55;;;;;;;17.73;11.57;;;;;;;;;;5077338;28;20729;-83
2023/12/16 07:24:59;;;;;;;20.03;13.73;;;;;;;;;;5100807;28;20183;-84
2023/12/16 07:28:04;;;;;;;19.87;12.83;;;;;;;;;;5088975;28;20183;-84
2023/12/16 07:31:08;;;;;;;18.93;12.30;;;;;;;;;;5076724;28;20175;-84
2023/12/16 07:34:12;;;;;;;20.67;12.67;;;;;;;;;;5088052;28;20179;-84
2023/12/16 07:37:18;;;;;;;21.10;12.20;;;;;;;;;;5077161;28;20179;-84
2023/12/16 07:40:22;;;;;;;16.63;11.60;;;;;;;;;;5088317;28;20179;-83
2023/12/16 07:43:26;;;;;;;17.90;11.77;;;;;;;;;;5088689;28;20520;-82
2023/12/16 07:46:30;;;;;;;18.00;12.27;;;;;;;;;;5077091;28;20214;-82
2023/12/16 07:49:35;;;;;;;18.80;12.80;;;;;;;;;;5076793;28;20183;-83
2023/12/16 07:52:39;;;;;;;24.40;12.20;;;;;;;;;;5101192;28;20179;-82
2023/12/16 07:55:43;;;;;;;16.77;12.00;;;;;;;;;;5076124;28;20214;-82
2023/12/16 07:58:48;;;;;;;20.33;13.30;;;;;;;;;;5075917;28;20175;-83
2023/12/16 08:01:53;;;;;;;20.73;13.70;;;;;;;;;;5100595;28;20673;-82
2023/12/16 08:04:59;;;;;;;22.00;14.80;;;;;;;;;;5090962;28;20183;-82
2023/12/16 08:08:03;;;;;;;21.07;14.17;;;;;;;;;;5090716;28;20179;-84
2023/12/16 08:11:08;;;;;;;23.20;13.90;;;;;;;;;;5081718;28;20179;-83
2023/12/16 08:14:13;;;;;;;18.17;12.93;;;;;;;;;;5093606;28;20187;-83
2023/12/16 08:17:17;;;;;;;20.50;13.07;;;;;;;;;;5071634;28;20183;-82
2023/12/16 08:20:21;;;;;;;19.00;12.60;;;;;;;;;;5092875;28;20182;-83
2023/12/16 08:23:25;;;;;;;18.43;12.57;;;;;;;;;;5080343;28;20183;-82
2023/12/16 08:26:29;;;;;;;17.50;11.60;;;;;;;;;;5081941;28;20211;-82
2023/12/16 08:29:34;;;;;;;18.47;11.77;;;;;;;;;;5082225;28;20178;-82
2023/12/16 08:32:38;;;;;;;19.07;12.07;;;;;;;;;;5093257;28;20171;-82
2023/12/16 08:35:43;;;;;;;18.57;13.03;;;;;;;;;;5081718;28;20214;-82
2023/12/16 08:38:48;;;;;;;19.57;12.37;;;;;;;;;;5094334;28;20666;-84
2023/12/16 08:41:52;;;;;;;18.47;12.73;;;;;;;;;;5092940;28;20198;-82
2023/12/16 08:44:56;;;;;;;19.83;12.57;;;;;;;;;;5077506;28;20183;-83
2023/12/16 08:48:02;;;;;;;21.90;12.53;;;;;;;;;;5103132;28;20179;-83
2023/12/16 08:51:06;;;;;;;21.67;14.57;;;;;;;;;;5102278;28;20179;-82
2023/12/16 08:54:11;;;;;;;21.73;13.17;;;;;;;;;;5079518;28;20183;-83
2023/12/16 08:57:15;;;;;;;20.17;13.80;;;;;;;;;;5103122;28;20210;-82
2023/12/16 09:00:20;;;;;;;22.03;14.43;;;;;;;;;;5079261;28;20183;-82
2023/12/16 09:03:24;;;;;;;22.17;13.80;;;;;;;;;;5090850;28;20171;-83
2023/12/16 09:06:28;;;;;;;19.80;13.53;;;;;;;;;;5102611;28;20574;-82
2023/12/16 09:09:32;;;;;;;19.17;13.10;;;;;;;;;;5094794;28;20178;-83
2023/12/16 09:12:37;;;;;;;26.57;15.00;;;;;;;;;;5097492;28;20175;-81
2023/12/16 09:15:42;;;;;;;21.33;14.33;;;;;;;;;;5084225;28;20206;-83
2023/12/16 09:18:46;;;;;;;23.07;14.40;;;;;;;;;;5074284;28;20182;-82
2023/12/16 09:31:55;;;;;;;21.43;14.03;;;;;;;;;;5115824;28;20175;-82
2023/12/16 09:35:03;;;;;;;20.37;13.97;;;;;;;;;;5096510;28;20182;-83
2023/12/16 09:38:09;;;;;;;21.50;14.87;;;;;;;;;;5065637;28;20179;-85
2023/12/16 09:41:26;;;;;;;20.37;12.73;;;;;;;;;;5087979;28;20546;-86
2023/12/16 09:44:36;;;;;;;17.87;12.73;;;;;;;;;;5074315;28;20184;-86
2023/12/16 09:47:40;;;;;;;17.83;13.07;;;;;;;;;;5086476;28;20174;-86
2023/12/16 09:50:44;;;;;;;20.93;15.97;;;;;;;;;;5100173;28;20544;-87
2023/12/16 09:53:52;;;;;;;18.30;13.77;;;;;;;;;;5108407;28;20208;-88
2023/12/16 09:56:58;;;;;;;20.27;13.77;;;;;;;;;;5093357;28;20222;-86
2023/12/16 10:00:04;;;;;;;19.97;13.27;;;;;;;;;;5086148;28;20183;-86
2023/12/16 10:03:14;;;;;;;16.07;12.67;;;;;;;;;;5074769;28;20183;-86
2023/12/16 10:06:18;;;;;;;18.90;12.30;;;;;;;;;;5074028;28;20230;-86
2023/12/16 10:09:23;;;;;;;14.80;10.43;;;;;;;;;;5086001;28;20174;-86
2023/12/16 10:12:33;;;;;;;16.40;12.03;;;;;;;;;;5098315;28;20182;-87
2023/12/16 10:15:38;;;;;;;15.13;11.67;;;;;;;;;;5085660;28;20214;-86
2023/12/16 10:18:42;;;;;;;18.27;12.03;;;;;;;;;;5098164;28;20175;-87
2023/12/16 10:21:46;;;;;;;16.77;11.97;;;;;;;;;;5097705;28;20675;-86
2023/12/16 10:24:51;;;;;;;15.83;11.20;;;;;;;;;;5085243;28;20175;-86
2023/12/16 10:28:00;;;;;;;13.37;10.13;;;;;;;;;;5085549;28;20171;-86
2023/12/16 10:31:06;;;;;;;17.40;11.87;;;;;;;;;;5063012;28;20175;-85
2023/12/16 10:34:11;;;;;;;15.40;12.00;;;;;;;;;;5097349;28;20183;-86
2023/12/16 10:37:15;;;;;;;17.93;11.37;;;;;;;;;;5085104;28;20210;-87
2023/12/16 10:40:20;;;;;;;15.80;11.13;;;;;;;;;;5073684;28;20183;-85
2023/12/16 10:43:24;;;;;;;16.27;11.33;;;;;;;;;;5097821;28;20655;-85
2023/12/16 10:46:34;;;;;;;13.27;9.87;;;;;;;;;;5073394;28;20222;-87
2023/12/16 10:49:44;;;;;;;12.63;9.73;;;;;;;;;;5085233;28;20179;-86
2023/12/16 10:52:52;;;;;;;12.80;10.27;;;;;;;;;;5085205;28;20183;-86
2023/12/16 10:55:59;;;;;;;13.60;9.93;;;;;;;;;;5085469;28;20571;-86
2023/12/16 10:59:14;;;;;;;16.97;10.60;;;;;;;;;;5086140;28;20179;-85
2023/12/16 11:02:22;;;;;;;15.87;10.30;;;;;;;;;;5086540;28;20670;-86
2023/12/16 11:05:29;;;;;;;13.83;11.10;;;;;;;;;;5097860;28;20226;-86
2023/12/16 11:08:36;;;;;;;13.53;10.77;;;;;;;;;;5098569;28;20175;-87
2023/12/16 11:11:41;;;;;;;13.73;10.73;;;;;;;;;;5097092;28;20175;-86
2023/12/16 11:14:46;;;;;;;13.30;9.87;;;;;;;;;;5097649;28;20175;-86
2023/12/16 11:18:09;;;;;;;13.17;10.07;;;;;;;;;;5063119;28;20179;-86
2023/12/16 11:21:18;;;;;;;14.40;10.10;;;;;;;;;;5085665;28;20171;-85
2023/12/16 11:24:22;;;;;;;13.03;9.97;;;;;;;;;;5098517;28;20171;-85
2023/12/16 11:27:28;;;;;;;14.23;10.63;;;;;;;;;;5062068;28;20529;-85
2023/12/16 11:30:33;;;;;;;17.07;11.03;;;;;;;;;;5097563;28;20179;-86
2023/12/16 11:33:43;;;;;;;14.93;10.87;;;;;;;;;;5085481;28;20179;-87
2023/12/16 11:36:53;;;;;;;12.50;8.60;;;;;;;;;;5074771;28;20210;-86
2023/12/16 11:39:57;;;;;;;11.40;8.57;;;;;;;;;;5102277;28;20175;-87
2023/12/16 11:43:03;;;;;;;12.00;7.93;;;;;;;;;;5088912;28;20215;-86
2023/12/16 11:46:08;;;;;;;10.07;7.53;;;;;;;;;;5065607;28;20214;-86
2023/12/16 11:49:16;;;;;;;10.03;7.50;;;;;;;;;;5088756;28;20175;-87
2023/12/16 11:52:22;;;;;;;10.03;7.80;;;;;;;;;;5076995;28;20167;-86
2023/12/16 11:55:26;;;;;;;10.17;7.83;;;;;;;;;;5101995;28;20214;-87
2023/12/16 11:58:30;;;;;;;10.47;8.03;;;;;;;;;;5078496;28;20171;-86
2023/12/16 12:01:35;;;;;;;11.73;8.33;;;;;;;;;;5077688;28;20623;-86
2023/12/16 12:04:39;;;;;;;13.77;8.73;;;;;;;;;;5102341;28;20520;-85
2023/12/16 12:07:43;;;;;;;11.07;7.90;;;;;;;;;;5077832;28;20178;-88
2023/12/16 12:10:47;;;;;;;13.93;8.33;;;;;;;;;;5079154;28;20179;-87
2023/12/16 12:13:52;;;;;;;9.40;7.00;;;;;;;;;;5089355;28;20175;-86
2023/12/16 12:16:57;;;;;;;10.63;7.93;;;;;;;;;;5077701;28;20218;-86
2023/12/16 12:20:01;;;;;;;8.67;7.30;;;;;;;;;;5077126;28;20183;-86
2023/12/16 12:23:05;;;;;;;9.17;7.37;;;;;;;;;;5076762;28;20202;-87
2023/12/16 12:26:10;;;;;;;8.43;7.07;;;;;;;;;;5100844;28;20210;-86
2023/12/16 12:29:14;;;;;;;12.37;8.67;;;;;;;;;;5088186;28;20183;-86
2023/12/16 12:32:19;;;;;;;9.13;6.83;;;;;;;;;;5076301;28;20175;-86
2023/12/16 12:35:23;;;;;;;11.83;6.73;;;;;;;;;;5087823;28;20214;-87
2023/12/16 12:38:28;;;;;;;10.03;6.30;;;;;;;;;;5088580;28;20183;-86
2023/12/16 12:41:32;;;;;;;6.93;5.63;;;;;;;;;;5089043;28;20179;-86
2023/12/16 12:44:37;;;;;;;7.90;6.23;;;;;;;;;;5089084;28;20190;-86
2023/12/16 12:47:42;;;;;;;8.17;6.33;;;;;;;;;;5088627;28;20534;-86
2023/12/16 12:51:02;;;;;;;6.20;5.07;;;;;;;;;;5064117;28;20187;-83
2023/12/16 12:54:06;;;;;;;7.93;6.20;;;;;;;;;;5088752;28;20171;-85
2023/12/16 12:57:20;;;;;;;7.80;6.30;;;;;;;;;;5088208;28;20222;-85
2023/12/16 13:00:25;;;;;;;6.70;6.00;;;;;;;;;;5078986;28;20171;-84
2023/12/16 13:03:31;;;;;;;9.70;6.20;;;;;;;;;;5094122;28;20206;-84
2023/12/16 13:06:35;;;;;;;10.20;7.03;;;;;;;;;;5076223;28;20226;-84
2023/12/16 13:09:39;;;;;;;8.77;6.90;;;;;;;;;;5075195;28;20178;-86
2023/12/16 13:12:44;;;;;;;7.80;6.37;;;;;;;;;;5074879;28;20175;-83
2023/12/16 13:15:48;;;;;;;7.63;6.37;;;;;;;;;;5087360;28;20218;-85
2023/12/16 13:18:53;;;;;;;8.23;6.53;;;;;;;;;;5063646;28;20187;-86
2023/12/16 13:21:57;;;;;;;8.23;6.53;;;;;;;;;;5086347;28;20183;-84
2023/12/16 13:25:01;;;;;;;11.73;9.33;;;;;;;;;;5074495;28;20547;-84
2023/12/16 13:28:06;;;;;;;10.33;7.03;;;;;;;;;;5099421;28;20179;-84
2023/12/16 13:31:10;;;;;;;10.73;7.37;;;;;;;;;;5086022;28;20182;-87
2023/12/16 13:34:14;;;;;;;8.93;6.10;;;;;;;;;;5085978;28;20171;-85
2023/12/16 13:37:18;;;;;;;9.80;6.67;;;;;;;;;;5074531;28;20178;-85
2023/12/16 13:40:22;;;;;;;8.87;5.77;;;;;;;;;;5097992;28;20178;-84
2023/12/16 13:43:27;;;;;;;7.93;6.03;;;;;;;;;;5097363;28;20210;-84
2023/12/16 13:46:31;;;;;;;8.50;5.77;;;;;;;;;;5092165;28;20210;-84
2023/12/16 13:49:35;;;;;;;7.77;5.90;;;;;;;;;;5067906;28;20187;-83
2023/12/16 13:52:39;;;;;;;10.50;5.87;;;;;;;;;;5079175;28;20536;-83
2023/12/16 13:55:43;;;;;;;7.90;5.90;;;;;;;;;;5078631;28;20563;-83
2023/12/16 13:58:47;;;;;;;7.70;6.47;;;;;;;;;;5068517;28;20186;-83
2023/12/16 14:01:51;;;;;;;16.20;8.70;;;;;;;;;;5078777;28;20179;-83
2023/12/16 14:04:56;;;;;;;12.20;9.47;;;;;;;;;;5067366;28;20167;-83
2023/12/16 14:08:00;;;;;;;8.00;7.10;;;;;;;;;;5078403;28;20171;-83
2023/12/16 14:11:04;;;;;;;9.30;6.73;;;;;;;;;;5067741;28;20174;-82
2023/12/16 14:14:11;;;;;;;7.23;6.33;;;;;;;;;;5082063;28;20171;-83
2023/12/16 14:17:17;;;;;;;8.20;7.30;;;;;;;;;;5080762;28;20214;-83
2023/12/16 14:20:21;;;;;;;8.50;6.60;;;;;;;;;;5069835;28;20179;-84
2023/12/16 14:23:25;;;;;;;10.13;7.20;;;;;;;;;;5082309;28;20206;-84
2023/12/16 14:26:30;;;;;;;8.57;6.67;;;;;;;;;;5091606;28;20218;-85
2023/12/16 14:29:34;;;;;;;8.67;7.27;;;;;;;;;;5068537;28;20178;-83
2023/12/16 14:32:38;;;;;;;9.20;7.10;;;;;;;;;;5069555;28;20175;-84
2023/12/16 14:35:43;;;;;;;9.47;7.10;;;;;;;;;;5091034;28;20226;-83
2023/12/16 14:38:47;;;;;;;8.83;6.60;;;;;;;;;;5092407;28;20187;-83
2023/12/16 14:41:51;;;;;;;10.50;6.53;;;;;;;;;;5080072;28;20183;-83
2023/12/16 14:44:55;;;;;;;9.60;7.10;;;;;;;;;;5091001;28;20171;-84
2023/12/16 14:48:03;;;;;;;8.93;6.40;;;;;;;;;;5080567;28;20179;-83
2023/12/16 14:51:07;;;;;;;11.10;7.50;;;;;;;;;;5079070;28;20278;-83
2023/12/16 14:54:11;;;;;;;9.20;6.77;;;;;;;;;;5072398;28;20623;-86
2023/12/16 14:57:15;;;;;;;9.67;7.40;;;;;;;;;;5071777;28;20214;-84
2023/12/16 15:00:20;;;;;;;11.63;8.90;;;;;;;;;;5095503;28;20174;-85
2023/12/16 15:03:24;;;;;;;10.50;7.90;;;;;;;;;;5095549;28;20211;-85
2023/12/16 15:06:28;;;;;;;9.50;7.47;;;;;;;;;;5083644;28;20226;-84
2023/12/16 15:09:32;;;;;;;10.10;7.33;;;;;;;;;;5060454;28;20202;-84
2023/12/16 15:12:36;;;;;;;9.00;6.90;;;;;;;;;;5083099;28;20179;-85
2023/12/16 15:15:43;;;;;;;8.67;6.80;;;;;;;;;;5072054;28;20214;-85
2023/12/16 15:18:48;;;;;;;9.03;7.13;;;;;;;;;;5083827;28;20186;-84
2023/12/16 15:21:53;;;;;;;8.77;6.83;;;;;;;;;;5072490;28;20182;-86
2023/12/16 15:24:57;;;;;;;7.93;6.40;;;;;;;;;;5082780;28;20647;-84
2023/12/16 15:28:01;;;;;;;11.27;7.33;;;;;;;;;;5083497;28;20178;-85
2023/12/16 15:31:06;;;;;;;9.63;7.13;;;;;;;;;;5096476;28;20183;-86
2023/12/16 15:34:10;;;;;;;8.60;6.93;;;;;;;;;;5072359;28;20179;-84
2023/12/16 15:37:14;;;;;;;10.30;7.33;;;;;;;;;;5095593;28;20214;-85
2023/12/16 15:40:18;;;;;;;11.13;7.63;;;;;;;;;;5082966;28;20179;-84
2023/12/16 15:43:22;;;;;;;10.20;7.30;;;;;;;;;;5096491;28;20206;-84
2023/12/16 15:46:26;;;;;;;11.43;7.77;;;;;;;;;;5083220;28;20218;-85
2023/12/16 15:49:30;;;;;;;9.63;7.57;;;;;;;;;;5083978;28;20179;-84
2023/12/16 15:52:36;;;;;;;9.27;6.97;;;;;;;;;;5095915;28;20639;-84
2023/12/16 15:55:40;;;;;;;11.93;7.13;;;;;;;;;;5083975;28;20691;-84
2023/12/16 15:58:45;;;;;;;9.40;6.80;;;;;;;;;;5084052;28;20183;-84
2023/12/16 16:01:49;;;;;;;10.03;7.53;;;;;;;;;;5072180;28;20179;-85
2023/12/16 16:04:53;;;;;;;10.60;7.47;;;;;;;;;;5095379;28;20222;-85
2023/12/16 16:07:58;;;;;;;10.57;7.33;;;;;;;;;;5083268;28;20647;-84
2023/12/16 16:11:04;;;;;;;12.23;8.03;;;;;;;;;;5071424;28;20175;-84
2023/12/16 16:14:08;;;;;;;11.43;7.60;;;;;;;;;;5072220;28;20183;-86
2023/12/16 16:17:13;;;;;;;11.50;7.90;;;;;;;;;;5085226;28;20211;-87
2023/12/16 16:20:17;;;;;;;12.40;8.40;;;;;;;;;;5075527;28;20183;-86
2023/12/16 16:23:21;;;;;;;11.10;7.57;;;;;;;;;;5075341;28;20202;-87
2023/12/16 16:26:26;;;;;;;13.33;8.63;;;;;;;;;;5087883;28;20211;-86
2023/12/16 16:29:30;;;;;;;14.83;8.87;;;;;;;;;;5076700;28;20178;-86
2023/12/16 16:32:34;;;;;;;12.43;8.33;;;;;;;;;;5075884;28;20178;-86
2023/12/16 16:35:38;;;;;;;12.77;8.50;;;;;;;;;;5088264;28;20218;-84
2023/12/16 16:38:42;;;;;;;12.40;8.80;;;;;;;;;;5088033;28;20182;-85
2023/12/16 16:41:47;;;;;;;12.53;8.90;;;;;;;;;;5088256;28;20174;-83
2023/12/16 16:44:51;;;;;;;13.40;9.23;;;;;;;;;;5076361;28;20211;-83
2023/12/16 16:47:56;;;;;;;13.97;8.83;;;;;;;;;;5099866;28;20635;-83
2023/12/16 16:51:00;;;;;;;16.47;9.97;;;;;;;;;;5087217;28;20524;-84
2023/12/16 16:54:04;;;;;;;11.97;8.80;;;;;;;;;;5087190;28;20174;-85
2023/12/16 16:57:08;;;;;;;14.30;9.77;;;;;;;;;;5098718;28;20218;-84
2023/12/16 17:00:13;;;;;;;16.73;10.10;;;;;;;;;;5088198;28;20178;-83
2023/12/16 17:03:17;;;;;;;12.20;9.30;;;;;;;;;;5099395;28;20210;-85
2023/12/16 17:06:21;;;;;;;12.33;7.93;;;;;;;;;;5100065;28;20221;-84
2023/12/16 17:09:25;;;;;;;14.03;8.90;;;;;;;;;;5086883;28;20186;-84
2023/12/16 17:12:30;;;;;;;16.77;11.77;;;;;;;;;;5087273;28;20183;-87
2023/12/16 17:15:34;;;;;;;22.23;15.30;;;;;;;;;;5067744;28;20207;-86
2023/12/16 17:18:39;;;;;;;26.17;16.40;;;;;;;;;;5089510;28;20659;-86
2023/12/16 17:21:44;;;;;;;34.23;21.90;;;;;;;;;;5076535;28;20178;-86
2023/12/16 17:24:49;;;;;;;14.03;9.73;;;;;;;;;;5086950;28;20210;-86
2023/12/16 17:27:54;;;;;;;11.97;8.60;;;;;;;;;;5077115;28;20179;-86
2023/12/16 17:30:59;;;;;;;12.67;8.80;;;;;;;;;;5087867;28;20183;-86
2023/12/16 17:34:03;;;;;;;11.00;7.43;;;;;;;;;;5087748;28;20175;-86
2023/12/16 17:37:10;;;;;;;11.73;7.80;;;;;;;;;;5087409;28;20222;-85
2023/12/16 17:40:14;;;;;;;14.17;9.00;;;;;;;;;;5087992;28;20179;-86
2023/12/16 17:43:18;;;;;;;13.50;9.27;;;;;;;;;;5087508;28;20183;-86
2023/12/16 17:46:23;;;;;;;13.70;9.67;;;;;;;;;;5089291;28;20552;-86
2023/12/16 17:49:27;;;;;;;15.10;8.90;;;;;;;;;;5087811;28;20178;-86
2023/12/16 17:52:31;;;;;;;14.10;9.43;;;;;;;;;;5076061;28;20174;-87
2023/12/16 17:55:36;;;;;;;14.73;9.27;;;;;;;;;;5086627;28;20317;-85
2023/12/16 17:58:40;;;;;;;13.83;9.03;;;;;;;;;;5075294;28;20187;-85
2023/12/16 18:01:45;;;;;;;15.57;10.27;;;;;;;;;;5086826;28;20178;-86
2023/12/16 18:04:50;;;;;;;13.87;9.53;;;;;;;;;;5081628;28;20211;-84
2023/12/16 18:07:56;;;;;;;13.30;9.07;;;;;;;;;;5093953;28;20201;-84
2023/12/16 18:11:05;;;;;;;14.37;10.40;;;;;;;;;;5080608;28;20179;-83
2023/12/16 18:14:09;;;;;;;15.70;10.20;;;;;;;;;;5068385;28;20183;-82
2023/12/16 18:17:13;;;;;;;17.33;10.40;;;;;;;;;;5079914;28;20210;-83